Terminal Aerodrome Forecast
Issued by NWS

Home | Current Version | Previous Version | Text Only | Print | Product List | Glossary On
Versions: 1 2 3 4 5 6 7 8 9 10 11 12 13 14 15 16 17 18 19 20 21 22 23 24 25
026
FTUS41 KPBZ 212356 CCA
TAFDUJ
TAF COR
KDUJ 212356Z 2200/2224 35010KT P6SM OVC020
     FM220300 02008KT P6SM OVC035
     FM220800 04008KT P6SM -RA OVC035
     FM221000 05008KT 3SM -FZRASN OVC025
     FM221200 05008KT 2SM -FZRASN BR OVC015
     FM221500 07008KT 2SM -FZRA BR OVC006
     FM222100 09005KT P6SM OVC008=

USA.gov is the U.S. government's official web portal to all federal, state and local government web resources and services.